Selma, Texas
Current Conditions -  °F | °C
As of 2:58 PM on Friday 19 Dec 2014 (Local Time) from KRND Reporting Station
Few Clouds Few Clouds  
Wind Chill: 63°   Ceiling: Unl
Heat Index: 63°   Visibility: 10mi
Dew Point: 50°   Wind: 12mph
Humidity: 63%   Direction: 360°N
Pressure: 30.06"   Gusts: 17mph
Location:  29.5872°N, 98.2801°W
Report Text: KRND 192058Z AUTO 36010G15KT 10SM FEW027 17/10 A3006 RMK AO2 SLP178 T01710100 55013
Loading
Personal Weather Stations






























Interactive Weather Map New forecast layout! Learn more

10-Day Weather Forecast

Advertisements
Track Severe Weather on mobile